Time;durP1;ratioP1;P1;durP2;ratioP2;P2;SDS_P1;SDS_P2;PMS_P1;PMS_P2;Temp;Humidity;BMP_temperature;BMP_pressure;BME280_temperature;BME280_humidity;BME280_pressure;Samples;Min_cycle;Max_cycle;Signal;HPM_P1;HPM_P2
2021/12/09 00:00:15;;;;;;;25.03;15.67;;;0.70;99.90;;;;;;4969927;28;20375;-77
2021/12/09 00:02:41;;;;;;;27.57;16.40;;;0.70;99.90;;;;;;4969985;28;20034;-77
2021/12/09 00:05:09;;;;;;;29.67;17.27;;;0.70;99.90;;;;;;4969845;28;20046;-77
2021/12/09 00:07:35;;;;;;;26.40;16.23;;;0.70;99.90;;;;;;4969631;28;20115;-77
2021/12/09 00:10:02;;;;;;;25.20;15.70;;;0.70;99.90;;;;;;4970033;28;20062;-77
2021/12/09 00:12:28;;;;;;;22.50;15.07;;;0.70;99.90;;;;;;4969647;28;20437;-77
2021/12/09 00:14:56;;;;;;;23.33;14.40;;;0.70;99.90;;;;;;4969275;28;20035;-77
2021/12/09 00:17:21;;;;;;;21.00;14.40;;;0.70;99.90;;;;;;4969808;28;20029;-77
2021/12/09 00:19:47;;;;;;;21.43;13.77;;;0.70;99.90;;;;;;4992151;28;20379;-76
2021/12/09 00:22:13;;;;;;;20.47;13.13;;;0.80;99.90;;;;;;4970934;28;20438;-76
2021/12/09 00:24:38;;;;;;;21.50;12.60;;;0.80;99.90;;;;;;4978384;28;20022;-76
2021/12/09 00:27:05;;;;;;;16.93;11.43;;;0.80;99.90;;;;;;4953296;28;20363;-76
2021/12/09 00:29:31;;;;;;;17.03;11.73;;;0.80;99.90;;;;;;4971103;28;20027;-76
2021/12/09 00:31:57;;;;;;;18.47;12.20;;;0.80;99.90;;;;;;4969310;28;20038;-76
2021/12/09 00:34:30;;;;;;;15.80;10.97;;;0.80;99.90;;;;;;5036554;28;20035;-76
2021/12/09 00:37:02;;;;;;;15.03;10.20;;;0.80;99.90;;;;;;4970545;28;20082;-76
2021/12/09 00:39:27;;;;;;;16.77;11.17;;;0.80;99.90;;;;;;5037155;28;20082;-76
2021/12/09 00:41:53;;;;;;;14.87;10.63;;;0.80;99.90;;;;;;4970707;28;20019;-76
2021/12/09 00:44:19;;;;;;;14.57;10.50;;;0.80;99.90;;;;;;4970207;28;20095;-76
2021/12/09 00:46:44;;;;;;;13.73;10.10;;;0.80;99.90;;;;;;4970111;28;20035;-76
2021/12/09 00:49:10;;;;;;;12.30;9.20;;;0.80;99.90;;;;;;5037386;28;20125;-76
2021/12/09 00:51:36;;;;;;;10.57;8.10;;;0.80;99.90;;;;;;4970662;28;20023;-76
2021/12/09 00:54:03;;;;;;;10.60;8.47;;;0.90;99.90;;;;;;4970079;28;20398;-76
2021/12/09 00:56:29;;;;;;;10.93;7.67;;;0.90;99.90;;;;;;4970236;28;20029;-76
2021/12/09 00:58:55;;;;;;;9.80;7.27;;;0.90;99.90;;;;;;4969992;28;20075;-76
2021/12/09 01:01:21;;;;;;;9.23;7.37;;;0.90;99.90;;;;;;4970185;28;20046;-76
2021/12/09 01:03:47;;;;;;;10.43;8.10;;;0.80;99.90;;;;;;4970108;28;20039;-76
2021/12/09 01:06:13;;;;;;;8.97;7.57;;;0.80;99.90;;;;;;4970122;28;20040;-76
2021/12/09 01:08:39;;;;;;;8.77;7.07;;;0.90;99.90;;;;;;4970256;28;20022;-76
2021/12/09 01:11:05;;;;;;;9.00;7.60;;;0.90;99.90;;;;;;4970021;28;20384;-76
2021/12/09 01:13:31;;;;;;;8.80;7.20;;;0.90;99.90;;;;;;4969691;28;20043;-77
2021/12/09 01:15:57;;;;;;;9.03;7.47;;;0.90;99.90;;;;;;4970656;28;20421;-76
2021/12/09 01:18:23;;;;;;;9.10;7.00;;;0.90;99.90;;;;;;4970348;28;20455;-76
2021/12/09 01:20:50;;;;;;;8.37;6.93;;;0.90;99.90;;;;;;4970627;28;20019;-76
2021/12/09 01:23:15;;;;;;;7.70;6.90;;;0.90;99.90;;;;;;4970010;28;20411;-76
2021/12/09 01:25:43;;;;;;;7.20;6.40;;;0.90;99.90;;;;;;4970093;28;20019;-76
2021/12/09 01:28:22;;;;;;;6.83;5.90;;;0.90;99.90;;;;;;4970290;28;20088;-76
2021/12/09 01:30:50;;;;;;;7.40;5.77;;;0.90;99.90;;;;;;4969970;28;20018;-77
2021/12/09 01:33:15;;;;;;;7.83;6.27;;;0.90;99.90;;;;;;4970029;28;20031;-76
2021/12/09 01:35:47;;;;;;;7.50;6.27;;;0.90;99.90;;;;;;4970281;28;20430;-76
2021/12/09 01:38:14;;;;;;;6.80;6.00;;;0.80;99.90;;;;;;4969968;28;20443;-77
2021/12/09 01:40:40;;;;;;;7.53;6.23;;;0.80;99.90;;;;;;4970012;28;20023;-76
2021/12/09 01:43:06;;;;;;;6.90;6.20;;;0.80;99.90;;;;;;4969279;28;20095;-76
2021/12/09 01:45:32;;;;;;;6.80;5.90;;;0.80;99.90;;;;;;4969805;28;20117;-76
2021/12/09 01:47:57;;;;;;;7.10;6.33;;;0.80;99.90;;;;;;5018760;28;20031;-76
2021/12/09 01:50:24;;;;;;;7.73;6.90;;;0.80;99.90;;;;;;4969680;28;20042;-76
2021/12/09 01:52:50;;;;;;;8.30;7.10;;;0.80;99.90;;;;;;4969025;28;20023;-76
2021/12/09 01:55:18;;;;;;;7.80;6.77;;;0.70;99.90;;;;;;4969715;28;20558;-76
2021/12/09 01:57:48;;;;;;;8.33;7.17;;;0.70;99.90;;;;;;4969437;28;20019;-76
2021/12/09 02:00:17;;;;;;;8.53;7.33;;;0.70;99.90;;;;;;4961282;28;20027;-76
2021/12/09 02:02:43;;;;;;;9.00;7.77;;;0.70;99.90;;;;;;4969203;28;20080;-76
2021/12/09 02:05:11;;;;;;;9.30;7.80;;;0.70;99.90;;;;;;4968934;28;20109;-77
2021/12/09 02:07:37;;;;;;;10.23;8.20;;;0.70;99.90;;;;;;4951991;28;20049;-76
2021/12/09 02:10:07;;;;;;;10.53;8.67;;;0.70;99.90;;;;;;4969220;28;20084;-76
2021/12/09 02:12:33;;;;;;;9.97;8.50;;;0.70;99.90;;;;;;4948213;28;20073;-76
2021/12/09 02:15:00;;;;;;;11.07;9.27;;;0.70;99.90;;;;;;4949645;28;20039;-76
2021/12/09 02:17:30;;;;;;;13.17;10.47;;;0.70;99.90;;;;;;4949303;28;20460;-76
2021/12/09 02:20:00;;;;;;;12.33;10.67;;;0.70;99.90;;;;;;4949503;29;20044;-76
2021/12/09 02:22:27;;;;;;;14.43;10.20;;;0.70;99.90;;;;;;4949554;28;20393;-76
2021/12/09 02:24:55;;;;;;;11.90;10.37;;;0.70;99.90;;;;;;4948614;28;20114;-76
2021/12/09 02:27:22;;;;;;;12.57;10.83;;;0.70;99.90;;;;;;4949759;28;20408;-76
2021/12/09 02:29:49;;;;;;;13.43;11.43;;;0.70;99.90;;;;;;4949949;28;20803;-76
2021/12/09 02:32:15;;;;;;;12.17;10.63;;;0.70;99.90;;;;;;4949451;28;20758;-76
2021/12/09 02:34:40;;;;;;;14.13;11.13;;;0.70;99.90;;;;;;4951188;28;20031;-76
2021/12/09 02:37:08;;;;;;;11.77;10.00;;;0.70;99.90;;;;;;4949607;28;20070;-76
2021/12/09 02:39:34;;;;;;;12.17;10.80;;;0.70;99.90;;;;;;4950057;28;20024;-76
2021/12/09 02:42:00;;;;;;;12.70;11.03;;;0.70;99.90;;;;;;4949856;28;20081;-76
2021/12/09 02:44:27;;;;;;;14.00;10.70;;;0.70;99.90;;;;;;4949824;29;20031;-76
2021/12/09 02:46:56;;;;;;;12.10;10.80;;;0.70;99.90;;;;;;4949149;28;20542;-76
2021/12/09 02:49:28;;;;;;;12.47;10.57;;;0.70;99.90;;;;;;4950285;28;20035;-76
2021/12/09 02:51:55;;;;;;;14.67;11.23;;;0.70;99.90;;;;;;4949497;28;20069;-74
2021/12/09 02:54:24;;;;;;;12.17;10.80;;;0.70;99.90;;;;;;4950124;29;20043;-74
2021/12/09 02:56:53;;;;;;;12.10;10.80;;;0.70;99.90;;;;;;4951343;29;20417;-74
2021/12/09 02:59:19;;;;;;;13.17;10.80;;;0.70;99.90;;;;;;4952829;29;20031;-74
2021/12/09 03:01:56;;;;;;;13.23;10.93;;;0.70;99.90;;;;;;4952268;29;20491;-74
2021/12/09 03:04:22;;;;;;;13.27;11.47;;;0.70;99.90;;;;;;4952734;29;20480;-74
2021/12/09 03:06:50;;;;;;;15.13;12.90;;;0.70;99.90;;;;;;4952536;29;20074;-74
2021/12/09 03:09:18;;;;;;;17.60;12.13;;;0.70;99.90;;;;;;4952607;29;20035;-74
2021/12/09 03:11:48;;;;;;;15.63;12.50;;;0.70;99.90;;;;;;4952077;29;20122;-74
2021/12/09 03:14:13;;;;;;;16.37;13.30;;;0.70;99.90;;;;;;4970668;28;20154;-74
2021/12/09 03:16:40;;;;;;;16.50;13.17;;;0.70;99.90;;;;;;4971784;28;20113;-74
2021/12/09 03:19:08;;;;;;;17.90;14.07;;;0.70;99.90;;;;;;4971749;28;20055;-74
2021/12/09 03:21:36;;;;;;;16.10;13.03;;;0.70;99.90;;;;;;4971429;28;20056;-74
2021/12/09 03:24:05;;;;;;;17.47;13.97;;;0.70;99.90;;;;;;4971990;28;20031;-74
2021/12/09 03:26:35;;;;;;;18.70;14.67;;;0.70;99.90;;;;;;4971952;28;20027;-74
2021/12/09 03:29:04;;;;;;;17.27;13.13;;;0.70;99.90;;;;;;4971475;28;20019;-74
2021/12/09 03:31:30;;;;;;;18.17;14.77;;;0.70;99.90;;;;;;4971088;28;20053;-74
2021/12/09 03:33:57;;;;;;;18.50;14.57;;;0.70;99.90;;;;;;4953771;28;20030;-74
2021/12/09 03:36:28;;;;;;;17.00;13.53;;;0.60;99.90;;;;;;4971384;28;20027;-74
2021/12/09 03:38:57;;;;;;;19.90;15.33;;;0.60;99.90;;;;;;4971431;28;20387;-74
2021/12/09 03:41:22;;;;;;;19.93;14.80;;;0.60;99.90;;;;;;4971165;28;20031;-74
2021/12/09 03:43:48;;;;;;;22.73;15.17;;;0.60;99.90;;;;;;4971578;28;20482;-74
2021/12/09 03:46:15;;;;;;;20.30;14.63;;;0.60;99.90;;;;;;4971380;28;20090;-74
2021/12/09 03:48:40;;;;;;;19.43;14.73;;;0.60;99.90;;;;;;4971290;28;20434;-74
2021/12/09 03:51:06;;;;;;;16.70;13.30;;;0.60;99.90;;;;;;4971150;28;20031;-74
2021/12/09 03:53:31;;;;;;;16.97;13.13;;;0.60;99.90;;;;;;4971441;28;20076;-74
2021/12/09 03:55:57;;;;;;;16.10;13.50;;;0.60;99.90;;;;;;4954022;28;20442;-74
2021/12/09 03:58:24;;;;;;;17.63;13.37;;;0.60;99.90;;;;;;4971442;28;20034;-74
2021/12/09 04:00:50;;;;;;;17.13;13.27;;;0.70;99.90;;;;;;4971119;28;20031;-74
2021/12/09 04:03:17;;;;;;;18.10;13.97;;;0.70;99.90;;;;;;4971260;28;20031;-74
2021/12/09 04:05:43;;;;;;;17.93;13.33;;;0.70;99.90;;;;;;4971571;28;20027;-74
2021/12/09 04:08:10;;;;;;;18.27;13.80;;;0.70;99.90;;;;;;4971417;28;20096;-74
2021/12/09 04:10:36;;;;;;;18.40;14.03;;;0.70;99.90;;;;;;4971265;28;20767;-76
2021/12/09 04:13:02;;;;;;;20.20;14.67;;;0.70;99.90;;;;;;4971231;28;20059;-76
2021/12/09 04:15:28;;;;;;;17.07;12.90;;;0.70;99.90;;;;;;4971304;28;20092;-76
2021/12/09 04:17:53;;;;;;;17.00;12.93;;;0.70;99.90;;;;;;4971521;28;20027;-76
2021/12/09 04:20:20;;;;;;;16.70;12.30;;;0.70;99.90;;;;;;4971168;28;20486;-76
2021/12/09 04:22:49;;;;;;;17.90;12.83;;;0.70;99.90;;;;;;4971514;28;20034;-76
2021/12/09 04:25:19;;;;;;;18.83;13.43;;;0.70;99.90;;;;;;4971702;28;20077;-76
2021/12/09 04:27:46;;;;;;;17.77;13.00;;;0.70;99.90;;;;;;4971491;28;20064;-76
2021/12/09 04:30:13;;;;;;;18.97;13.07;;;0.70;99.90;;;;;;4971325;28;20038;-76
2021/12/09 04:32:39;;;;;;;17.70;13.13;;;0.70;99.90;;;;;;4971182;28;20035;-76
2021/12/09 04:35:06;;;;;;;17.87;13.50;;;0.70;99.90;;;;;;4971243;28;20074;-76
2021/12/09 04:37:31;;;;;;;18.33;13.70;;;0.70;99.90;;;;;;4971002;28;20050;-76
2021/12/09 04:39:57;;;;;;;19.00;13.30;;;0.70;99.90;;;;;;4953929;28;20482;-76
2021/12/09 04:42:23;;;;;;;14.73;11.20;;;0.70;99.90;;;;;;4953497;28;20109;-76
2021/12/09 04:44:49;;;;;;;16.60;12.23;;;0.80;99.90;;;;;;4970769;28;20478;-77
2021/12/09 04:47:15;;;;;;;17.30;12.13;;;0.80;99.90;;;;;;4970985;28;20168;-76
2021/12/09 04:49:40;;;;;;;14.50;11.17;;;0.80;99.90;;;;;;4970816;28;20110;-76
2021/12/09 04:52:07;;;;;;;16.33;12.30;;;0.80;99.90;;;;;;4971021;28;20035;-76
2021/12/09 04:54:36;;;;;;;17.60;11.70;;;0.80;99.90;;;;;;4970035;28;20490;-77
2021/12/09 04:57:05;;;;;;;14.33;11.57;;;0.80;99.90;;;;;;4970481;28;20102;-77
2021/12/09 04:59:30;;;;;;;15.33;11.17;;;0.80;99.90;;;;;;4970840;28;20102;-76
2021/12/09 05:01:56;;;;;;;14.67;11.10;;;0.80;99.90;;;;;;4970718;28;20113;-77
2021/12/09 05:04:22;;;;;;;15.63;11.53;;;0.80;99.90;;;;;;4970916;28;20065;-77
2021/12/09 05:06:47;;;;;;;14.17;10.77;;;0.80;99.90;;;;;;4970765;28;20113;-77
2021/12/09 05:09:17;;;;;;;12.80;10.03;;;0.80;99.90;;;;;;4971028;28;20467;-77
2021/12/09 05:14:08;;;;;;;14.40;10.40;;;0.90;99.90;;;;;;4971479;28;20109;-80
2021/12/09 05:16:34;;;;;;;12.60;9.80;;;0.80;99.90;;;;;;4970491;28;20383;-80
2021/12/09 05:19:00;;;;;;;15.23;10.63;;;0.80;99.90;;;;;;4970572;28;20406;-80
2021/12/09 05:21:29;;;;;;;15.20;10.53;;;0.80;99.90;;;;;;4970566;28;20537;-80
2021/12/09 05:23:58;;;;;;;14.07;10.03;;;0.80;99.90;;;;;;4953056;28;20031;-80
2021/12/09 05:26:29;;;;;;;14.27;10.20;;;0.80;99.90;;;;;;4970272;28;20041;-80
2021/12/09 05:28:56;;;;;;;12.87;9.50;;;0.90;99.90;;;;;;4965461;28;20027;-80
2021/12/09 05:34:10;;;;;;;12.83;9.47;;;0.90;99.90;;;;;;4968622;28;20040;-80
2021/12/09 05:36:36;;;;;;;13.87;9.70;;;0.80;99.90;;;;;;4953615;28;20467;-80
2021/12/09 05:39:04;;;;;;;12.87;9.27;;;0.80;99.90;;;;;;4971106;28;20027;-80
2021/12/09 05:41:33;;;;;;;13.50;10.00;;;0.80;99.90;;;;;;4968630;28;20383;-80
2021/12/09 05:44:00;;;;;;;12.63;9.07;;;0.80;99.90;;;;;;4970571;28;20033;-80
2021/12/09 05:46:25;;;;;;;10.80;8.13;;;0.80;99.90;;;;;;4971417;28;20085;-80
2021/12/09 05:48:51;;;;;;;11.93;8.77;;;0.80;99.90;;;;;;4970949;28;20460;-80
2021/12/09 05:51:17;;;;;;;11.07;7.80;;;0.80;99.90;;;;;;4953375;28;20095;-80
2021/12/09 05:53:45;;;;;;;14.07;8.60;;;0.80;99.90;;;;;;4971287;28;20027;-80
2021/12/09 05:56:10;;;;;;;15.03;8.07;;;0.80;99.90;;;;;;4971066;28;20031;-80
2021/12/09 05:58:36;;;;;;;9.93;7.60;;;0.80;99.90;;;;;;4971000;28;20023;-80
2021/12/09 06:01:02;;;;;;;9.73;7.40;;;0.80;99.90;;;;;;4971433;28;20054;-80
2021/12/09 06:03:27;;;;;;;8.33;6.73;;;0.80;99.90;;;;;;4965579;28;20031;-79
2021/12/09 06:05:53;;;;;;;11.17;7.20;;;0.80;99.90;;;;;;4962190;28;20054;-80
2021/12/09 06:08:20;;;;;;;8.97;6.27;;;0.70;99.90;;;;;;4974780;28;20035;-80
2021/12/09 06:10:46;;;;;;;9.33;6.17;;;0.80;99.90;;;;;;4971284;28;20511;-81
2021/12/09 06:13:12;;;;;;;8.60;6.30;;;0.80;99.90;;;;;;4970170;28;20043;-83
2021/12/09 06:15:38;;;;;;;10.33;6.43;;;0.80;99.90;;;;;;4971471;28;20046;-80
2021/12/09 06:18:04;;;;;;;7.90;6.43;;;0.80;99.90;;;;;;4971560;28;20031;-81
2021/12/09 06:20:30;;;;;;;8.83;6.00;;;0.80;99.90;;;;;;4973111;28;20023;-81
2021/12/09 06:22:55;;;;;;;7.57;5.90;;;0.80;99.90;;;;;;4971096;28;20101;-80
2021/12/09 06:25:22;;;;;;;8.63;6.67;;;0.80;99.90;;;;;;4970635;28;20102;-81
2021/12/09 06:27:51;;;;;;;8.97;6.57;;;0.80;99.90;;;;;;4969723;28;20038;-81
2021/12/09 06:30:18;;;;;;;10.43;6.70;;;0.80;99.90;;;;;;4972440;28;20039;-81
2021/12/09 06:32:44;;;;;;;7.93;6.00;;;0.80;99.90;;;;;;4973180;28;20095;-81
2021/12/09 06:35:11;;;;;;;8.20;6.20;;;0.80;99.90;;;;;;4973468;28;20030;-82
2021/12/09 06:37:39;;;;;;;9.60;7.00;;;0.70;99.90;;;;;;4973373;28;20223;-80
2021/12/09 06:40:10;;;;;;;9.10;6.90;;;0.80;99.90;;;;;;4972531;28;20027;-81
2021/12/09 06:42:36;;;;;;;10.40;6.60;;;0.80;99.90;;;;;;4960567;28;20031;-82
2021/12/09 06:45:03;;;;;;;9.80;6.60;;;0.80;99.90;;;;;;4973386;28;20039;-81
2021/12/09 06:47:29;;;;;;;9.00;6.47;;;0.80;99.90;;;;;;4973506;28;20068;-81
2021/12/09 06:49:54;;;;;;;8.93;7.07;;;0.80;99.90;;;;;;4977000;28;20026;-80
2021/12/09 06:52:20;;;;;;;9.17;6.67;;;0.70;99.90;;;;;;4986784;28;20058;-81
2021/12/09 06:54:45;;;;;;;9.10;6.87;;;0.70;99.90;;;;;;4954005;28;20045;-80
2021/12/09 06:57:11;;;;;;;8.57;6.50;;;0.80;99.90;;;;;;4953656;28;20093;-80
2021/12/09 06:59:37;;;;;;;9.37;6.83;;;0.80;99.90;;;;;;4958696;28;20038;-80
2021/12/09 07:02:03;;;;;;;11.50;7.30;;;0.80;99.90;;;;;;4955899;28;20403;-81
2021/12/09 07:04:28;;;;;;;10.93;7.60;;;0.80;99.90;;;;;;4951475;28;20039;-80
2021/12/09 07:06:54;;;;;;;9.87;7.23;;;0.80;99.90;;;;;;4966812;28;20478;-82
2021/12/09 07:09:19;;;;;;;8.60;6.77;;;0.80;99.90;;;;;;4972038;28;20106;-81
2021/12/09 07:11:50;;;;;;;9.70;7.00;;;0.80;99.90;;;;;;4971922;28;20035;-83
2021/12/09 07:14:17;;;;;;;9.90;7.37;;;0.80;99.90;;;;;;4971998;28;20472;-80
2021/12/09 07:16:43;;;;;;;9.67;7.43;;;0.80;99.90;;;;;;4978003;28;20037;-80
2021/12/09 07:19:09;;;;;;;8.93;6.23;;;0.80;99.90;;;;;;4967545;28;20102;-80
2021/12/09 07:21:34;;;;;;;8.57;7.07;;;0.80;99.90;;;;;;4972039;28;20027;-80
2021/12/09 07:24:00;;;;;;;9.30;7.47;;;0.80;99.90;;;;;;4967761;28;20035;-82
2021/12/09 07:26:26;;;;;;;11.23;7.23;;;0.90;99.90;;;;;;4970425;28;20096;-82
2021/12/09 07:28:52;;;;;;;10.00;7.13;;;0.90;99.90;;;;;;4971485;28;20088;-82
2021/12/09 07:31:17;;;;;;;8.63;6.57;;;0.90;99.90;;;;;;4971302;28;20063;-82
2021/12/09 07:33:43;;;;;;;7.13;5.83;;;0.90;99.90;;;;;;4971110;28;20383;-82
2021/12/09 07:36:09;;;;;;;9.37;6.73;;;0.90;99.90;;;;;;4966930;28;20028;-81
2021/12/09 07:38:34;;;;;;;9.57;7.20;;;1.00;99.90;;;;;;4970510;28;20103;-81
2021/12/09 07:41:00;;;;;;;9.03;7.07;;;0.90;99.90;;;;;;4965914;28;20038;-82
2021/12/09 07:43:26;;;;;;;13.50;7.20;;;0.90;99.90;;;;;;4968810;28;20092;-81
2021/12/09 07:45:51;;;;;;;8.83;6.37;;;0.90;99.90;;;;;;4977160;28;20028;-81
2021/12/09 07:48:17;;;;;;;9.23;7.13;;;0.90;99.90;;;;;;4949137;28;20046;-81
2021/12/09 07:50:42;;;;;;;7.63;6.30;;;1.00;99.90;;;;;;4968164;28;20099;-81
2021/12/09 07:53:08;;;;;;;9.13;7.37;;;1.00;99.90;;;;;;4969227;28;20464;-80
2021/12/09 07:55:34;;;;;;;9.93;6.97;;;1.00;99.90;;;;;;4981943;28;20046;-80
2021/12/09 07:58:00;;;;;;;8.73;7.13;;;1.10;99.90;;;;;;4962211;28;20391;-80
2021/12/09 08:00:33;;;;;;;8.30;6.83;;;1.10;99.90;;;;;;4944978;28;20384;-80
2021/12/09 08:03:00;;;;;;;7.43;6.07;;;1.10;99.90;;;;;;4961827;28;20023;-80
2021/12/09 08:05:27;;;;;;;8.07;6.43;;;1.00;99.90;;;;;;4976384;28;20117;-76
2021/12/09 08:07:53;;;;;;;11.30;7.67;;;1.10;99.90;;;;;;4965861;28;20116;-76
2021/12/09 08:10:19;;;;;;;8.20;6.60;;;1.10;99.90;;;;;;4971581;28;20064;-76
2021/12/09 08:12:46;;;;;;;10.63;6.40;;;1.10;99.90;;;;;;4968710;28;20086;-79
2021/12/09 08:15:14;;;;;;;7.63;6.00;;;1.10;99.90;;;;;;4978505;28;20139;-79
2021/12/09 08:20:13;;;;;;;6.50;5.37;;;1.10;99.90;;;;;;4969656;28;20063;-80
2021/12/09 08:22:40;;;;;;;7.00;5.83;;;1.20;99.90;;;;;;4966404;28;20058;-77
2021/12/09 08:25:07;;;;;;;6.97;5.40;;;1.20;99.90;;;;;;4966989;28;20062;-76
2021/12/09 08:27:34;;;;;;;9.53;6.13;;;1.20;99.90;;;;;;4969265;28;20030;-76
2021/12/09 08:30:02;;;;;;;7.40;5.90;;;1.20;99.90;;;;;;4967397;28;20061;-76
2021/12/09 08:32:28;;;;;;;8.17;6.73;;;1.10;99.90;;;;;;4963807;28;20023;-80
2021/12/09 08:34:58;;;;;;;6.90;5.60;;;1.10;99.90;;;;;;4962002;28;20133;-81
2021/12/09 08:37:24;;;;;;;8.60;5.93;;;1.10;99.90;;;;;;4968535;28;20019;-76
2021/12/09 08:39:49;;;;;;;7.57;5.80;;;1.10;99.90;;;;;;4949206;28;20032;-76
2021/12/09 08:42:16;;;;;;;9.50;6.03;;;1.10;99.90;;;;;;4952820;28;20035;-79
2021/12/09 08:44:42;;;;;;;7.33;6.13;;;1.20;99.90;;;;;;4967070;28;20031;-80
2021/12/09 08:47:08;;;;;;;8.03;5.50;;;1.20;99.90;;;;;;4980081;28;20034;-80
2021/12/09 08:49:37;;;;;;;7.50;5.67;;;1.10;99.90;;;;;;4983455;28;20048;-80
2021/12/09 08:52:03;;;;;;;7.57;5.63;;;1.10;99.90;;;;;;4992928;28;20039;-80
2021/12/09 08:54:29;;;;;;;6.63;5.70;;;1.20;99.90;;;;;;4955741;28;20055;-80
2021/12/09 08:56:55;;;;;;;8.80;5.70;;;1.20;99.90;;;;;;4963282;28;20575;-77
2021/12/09 08:59:22;;;;;;;7.17;5.90;;;1.20;99.90;;;;;;4950362;28;20100;-77
2021/12/09 09:01:48;;;;;;;6.30;5.60;;;1.20;99.90;;;;;;4969143;28;20030;-77
2021/12/09 09:04:14;;;;;;;7.47;6.07;;;1.20;99.90;;;;;;4968525;28;20043;-77
2021/12/09 09:07:04;;;;;;;6.70;5.30;;;1.30;99.90;;;;;;4964551;28;20089;-77
2021/12/09 09:09:41;;;;;;;8.27;6.03;;;1.40;99.90;;;;;;4953748;28;20152;-77
2021/12/09 09:12:13;;;;;;;7.67;6.20;;;1.40;99.90;;;;;;4996231;28;20357;-80
2021/12/09 09:14:42;;;;;;;7.50;5.77;;;1.50;99.90;;;;;;4976047;28;20119;-77
2021/12/09 09:17:15;;;;;;;7.87;6.53;;;1.50;99.90;;;;;;4988584;28;20034;-80
2021/12/09 09:19:45;;;;;;;10.60;6.80;;;1.50;99.90;;;;;;4988567;28;20034;-80
2021/12/09 09:22:13;;;;;;;9.77;6.73;;;1.60;99.90;;;;;;4990190;28;20470;-82
2021/12/09 09:24:40;;;;;;;9.77;6.50;;;1.50;99.90;;;;;;4992243;28;20038;-82
2021/12/09 09:27:09;;;;;;;8.47;6.63;;;1.50;99.90;;;;;;4962618;28;20113;-77
2021/12/09 09:29:39;;;;;;;7.40;6.60;;;1.50;99.90;;;;;;4984836;28;20027;-81
2021/12/09 09:32:12;;;;;;;7.83;6.43;;;1.60;99.90;;;;;;4967027;28;20046;-78
2021/12/09 09:34:38;;;;;;;8.97;7.00;;;1.60;99.90;;;;;;4962419;28;20027;-79
2021/12/09 09:37:05;;;;;;;10.20;7.37;;;1.60;99.90;;;;;;4958922;28;20474;-81
2021/12/09 09:39:32;;;;;;;11.60;7.97;;;1.60;99.90;;;;;;4947066;28;20569;-81
2021/12/09 09:42:18;;;;;;;10.20;8.47;;;1.70;99.90;;;;;;4957721;28;20022;-81
2021/12/09 09:44:54;;;;;;;12.93;8.73;;;1.80;99.90;;;;;;4961190;28;20068;-81
2021/12/09 09:47:25;;;;;;;12.93;9.43;;;1.80;99.90;;;;;;4960974;28;20027;-79
2021/12/09 09:49:52;;;;;;;11.20;9.23;;;1.80;99.90;;;;;;4972899;28;20164;-79
2021/12/09 09:52:19;;;;;;;14.03;9.97;;;1.90;99.90;;;;;;4954419;28;20145;-79
2021/12/09 09:54:44;;;;;;;15.23;10.23;;;1.90;99.90;;;;;;4973577;28;20030;-79
2021/12/09 09:57:10;;;;;;;12.93;8.83;;;2.00;99.90;;;;;;4970821;28;20494;-79
2021/12/09 09:59:40;;;;;;;13.37;9.23;;;2.00;99.90;;;;;;4971592;28;20031;-81
2021/12/09 10:02:05;;;;;;;12.40;9.63;;;2.00;99.90;;;;;;4971836;28;20486;-81
2021/12/09 10:04:48;;;;;;;16.07;9.50;;;2.00;99.90;;;;;;4967672;28;20075;-78
2021/12/09 10:07:21;;;;;;;15.57;10.03;;;2.00;99.90;;;;;;4969165;28;20019;-78
2021/12/09 10:09:48;;;;;;;13.03;9.63;;;2.00;99.90;;;;;;4971509;28;20477;-78
2021/12/09 10:12:14;;;;;;;13.77;10.13;;;2.10;99.90;;;;;;4969261;28;20044;-78
2021/12/09 10:14:45;;;;;;;16.87;10.00;;;2.10;99.90;;;;;;4953536;28;20335;-77
2021/12/09 10:17:14;;;;;;;19.37;9.97;;;2.10;99.90;;;;;;4971329;28;20053;-77
2021/12/09 10:19:47;;;;;;;11.63;9.50;;;2.10;99.90;;;;;;4969534;28;20023;-78
2021/12/09 10:22:17;;;;;;;13.37;9.23;;;2.10;99.90;;;;;;4965067;28;20023;-80
2021/12/09 10:24:45;;;;;;;19.53;9.50;;;2.10;99.90;;;;;;4963463;28;20106;-80
2021/12/09 10:27:24;;;;;;;19.47;10.77;;;2.20;99.90;;;;;;4947290;28;20031;-81
2021/12/09 10:29:55;;;;;;;16.47;10.87;;;2.20;99.90;;;;;;4941596;28;20100;-80
2021/12/09 10:32:27;;;;;;;17.10;9.73;;;2.30;99.90;;;;;;4969399;28;20037;-79
2021/12/09 10:34:53;;;;;;;13.60;9.93;;;2.20;99.90;;;;;;4967705;28;20497;-79
2021/12/09 10:37:29;;;;;;;14.13;9.80;;;2.20;99.90;;;;;;4966017;28;20035;-80
2021/12/09 10:40:19;;;;;;;13.67;9.23;;;2.20;99.90;;;;;;4961911;28;20035;-80
2021/12/09 10:42:49;;;;;;;12.67;8.90;;;2.20;99.90;;;;;;4986622;28;20077;-81
2021/12/09 10:45:16;;;;;;;14.70;10.10;;;2.20;99.90;;;;;;4963187;28;20035;-81
2021/12/09 10:47:52;;;;;;;14.87;9.37;;;2.30;99.90;;;;;;4965378;28;20031;-78
2021/12/09 10:50:39;;;;;;;14.80;8.87;;;2.30;99.90;;;;;;4960636;28;20349;-78
2021/12/09 10:56:04;;;;;;;10.70;7.97;;;2.20;99.90;;;;;;4967462;28;20096;-78
2021/12/09 10:58:34;;;;;;;17.23;9.13;;;2.30;99.90;;;;;;4954872;28;20132;-75
2021/12/09 11:01:07;;;;;;;16.63;9.20;;;2.40;99.90;;;;;;4971675;28;20023;-75
2021/12/09 11:03:34;;;;;;;17.27;9.37;;;2.30;99.90;;;;;;4970560;28;20031;-77
2021/12/09 11:06:12;;;;;;;12.60;8.30;;;2.30;99.90;;;;;;4971104;28;20031;-82
2021/12/09 11:08:42;;;;;;;16.70;9.37;;;2.40;99.90;;;;;;4970262;28;20113;-77
2021/12/09 11:11:11;;;;;;;16.67;7.47;;;2.40;99.90;;;;;;4971440;28;20379;-77
2021/12/09 11:13:49;;;;;;;17.73;7.30;;;2.40;99.90;;;;;;4971191;28;20104;-82
2021/12/09 11:16:28;;;;;;;13.00;7.83;;;2.50;99.90;;;;;;4970409;28;20077;-79
2021/12/09 11:19:07;;;;;;;17.27;8.00;;;2.50;99.90;;;;;;4970896;28;20037;-79
2021/12/09 11:21:37;;;;;;;13.47;7.43;;;2.50;99.90;;;;;;4971020;28;20019;-79
2021/12/09 11:24:08;;;;;;;13.20;7.67;;;2.50;99.90;;;;;;4971109;28;20045;-79
2021/12/09 11:27:00;;;;;;;19.47;8.90;;;2.50;99.90;;;;;;4971371;28;20034;-79
2021/12/09 11:29:34;;;;;;;17.53;7.13;;;2.40;99.90;;;;;;4970290;28;20027;-79
2021/12/09 11:32:14;;;;;;;11.23;6.95;;;2.60;99.90;;;;;;4970111;28;20046;-76
2021/12/09 11:34:52;;;;;;;15.90;7.23;;;2.50;99.90;;;;;;4969587;28;20449;-77
2021/12/09 11:37:47;;;;;;;13.77;7.17;;;2.40;99.90;;;;;;4970831;28;20025;-77
2021/12/09 11:40:21;;;;;;;14.03;6.87;;;2.40;99.90;;;;;;4970233;28;20113;-77
2021/12/09 11:42:53;;;;;;;10.83;7.13;;;2.40;99.90;;;;;;4983695;28;20019;-79
2021/12/09 11:45:27;;;;;;;14.50;7.33;;;2.40;99.90;;;;;;4970251;28;20141;-79
2021/12/09 11:47:54;;;;;;;14.50;7.40;;;2.30;99.90;;;;;;4970497;28;20031;-79
2021/12/09 11:50:35;;;;;;;11.93;6.70;;;2.30;99.90;;;;;;4969036;28;20045;-76
2021/12/09 11:53:05;;;;;;;11.33;6.67;;;2.30;99.90;;;;;;4951495;28;20468;-76
2021/12/09 11:55:39;;;;;;;14.20;6.70;;;2.30;99.90;;;;;;4962144;28;20391;-76
2021/12/09 11:58:21;;;;;;;15.27;6.77;;;2.40;99.90;;;;;;4971020;28;20030;-79
2021/12/09 12:13:04;;;;;;;12.17;7.07;;;2.30;99.90;;;;;;4958190;28;20081;-79
2021/12/09 12:18:52;;;;;;;11.90;6.00;;;2.40;99.90;;;;;;4967326;28;20107;-76
2021/12/09 12:35:44;;;;;;;15.13;6.80;;;2.20;99.90;;;;;;4928851;29;20035;-77
2021/12/09 12:38:34;;;;;;;12.93;6.93;;;2.20;99.90;;;;;;4967272;28;20042;-77
2021/12/09 12:41:13;;;;;;;15.20;7.43;;;2.20;99.90;;;;;;4963794;28;20101;-76
2021/12/09 12:43:50;;;;;;;14.93;7.33;;;2.20;99.90;;;;;;4952471;28;20026;-76
2021/12/09 12:52:00;;;;;;;12.67;6.10;;;2.20;99.90;;;;;;4976906;28;20372;-75
2021/12/09 12:57:17;;;;;;;12.30;6.93;;;2.20;99.90;;;;;;4965953;28;20487;-75
2021/12/09 13:00:06;;;;;;;15.83;7.30;;;2.30;99.90;;;;;;4986590;28;20091;-75
2021/12/09 13:03:01;;;;;;;11.43;7.07;;;2.20;99.90;;;;;;4951775;28;20062;-75
2021/12/09 13:05:41;;;;;;;12.23;7.07;;;2.20;99.90;;;;;;4975696;28;20038;-74
2021/12/09 13:08:29;;;;;;;13.40;6.77;;;2.20;99.90;;;;;;5043797;28;20762;-74
2021/12/09 13:16:14;;;;;;;15.63;7.97;;;2.20;99.90;;;;;;5011077;28;20042;-76
2021/12/09 13:21:44;;;;;;;16.13;7.30;;;2.10;99.90;;;;;;4970497;28;20045;-71
2021/12/09 13:24:50;;;;;;;11.57;7.30;;;2.20;99.90;;;;;;4967013;28;20026;-76
2021/12/09 13:33:20;;;;;;;10.47;6.73;;;2.10;99.90;;;;;;4966102;28;20077;-76
2021/12/09 13:49:57;;;;;;;13.00;7.20;;;2.00;99.90;;;;;;4965317;28;20039;-75
2021/12/09 13:55:24;;;;;;;11.47;6.73;;;2.10;99.90;;;;;;4949259;29;20135;-76
2021/12/09 13:57:57;;;;;;;11.07;6.90;;;2.00;99.90;;;;;;4931865;29;20104;-75
2021/12/09 14:00:26;;;;;;;11.97;6.80;;;2.10;99.90;;;;;;4949344;29;20038;-77
2021/12/09 14:02:57;;;;;;;10.23;6.90;;;2.10;99.90;;;;;;4948791;29;20138;-76
2021/12/09 14:05:25;;;;;;;10.50;7.10;;;2.10;99.90;;;;;;4955333;28;20026;-76
2021/12/09 14:08:00;;;;;;;13.70;8.13;;;2.10;99.90;;;;;;4968628;28;20037;-75
2021/12/09 14:10:30;;;;;;;10.63;6.77;;;2.10;99.90;;;;;;4970251;28;20045;-76
2021/12/09 14:13:01;;;;;;;11.87;6.37;;;2.00;99.90;;;;;;4968068;28;20084;-76
2021/12/09 14:15:37;;;;;;;9.97;6.27;;;2.00;99.90;;;;;;4968499;28;20037;-75